createdAt,value
2023-05-22T00:07:05.784Z,10.80
2023-05-22T00:21:56.263Z,10.29
2023-05-22T00:36:48.758Z,9.87
2023-05-22T00:51:41.082Z,10.56
2023-05-22T01:06:32.847Z,10.80
2023-05-22T01:21:36.175Z,10.88
2023-05-22T01:36:33.277Z,10.34
2023-05-22T01:51:33.145Z,10.54
2023-05-22T02:06:29.377Z,10.84
2023-05-22T02:21:21.422Z,9.23
2023-05-22T02:36:14.762Z,10.24
2023-05-22T02:51:06.106Z,10.04
2023-05-22T03:05:59.201Z,10.86
2023-05-22T03:20:53.705Z,9.98
2023-05-22T03:35:46.052Z,11.86
2023-05-22T03:50:38.040Z,12.96
2023-05-22T04:05:29.934Z,14.11
2023-05-22T04:20:23.256Z,14.23
2023-05-22T04:35:16.268Z,13.84
2023-05-22T04:50:09.533Z,13.71
2023-05-22T05:19:54.021Z,13.30
2023-05-22T05:49:40.135Z,11.77
2023-05-22T06:04:32.837Z,10.67
2023-05-22T06:19:26.027Z,10.32
2023-05-22T06:34:18.898Z,10.90
2023-05-22T06:49:11.350Z,11.49
2023-05-22T07:04:07.556Z,11.41
2023-05-22T07:19:04.762Z,10.76
2023-05-22T07:33:58.910Z,10.29
2023-05-22T07:48:53.729Z,10.66
2023-05-22T08:03:45.940Z,8.05
2023-05-22T08:18:38.156Z,9.90
2023-05-22T08:33:33.365Z,10.20
2023-05-22T08:48:26.286Z,10.30
2023-05-22T09:03:19.139Z,9.16
2023-05-22T09:18:12.826Z,10.65
2023-05-22T09:33:09.175Z,11.02
2023-05-22T09:48:01.833Z,12.60
2023-05-22T10:02:58.432Z,12.18
2023-05-22T10:17:54.028Z,11.99
2023-05-22T10:32:46.982Z,12.39
2023-05-22T10:47:41.175Z,13.86
2023-05-22T11:02:35.015Z,12.38
2023-05-22T11:17:28.506Z,12.13
2023-05-22T11:32:23.024Z,11.82
2023-05-22T11:47:16.804Z,10.88
2023-05-22T12:02:12.623Z,11.12
2023-05-22T12:17:05.983Z,10.86
2023-05-22T12:31:59.789Z,10.70
2023-05-22T12:46:52.884Z,9.34
2023-05-22T13:01:46.743Z,8.50
2023-05-22T13:16:40.859Z,8.52
2023-05-22T13:31:33.755Z,8.01
2023-05-22T13:46:29.204Z,7.96
2023-05-22T14:01:22.324Z,8.27
2023-05-22T14:16:17.338Z,7.68
2023-05-22T14:31:11.294Z,6.57
2023-05-22T14:46:06.248Z,6.00
2023-05-22T15:15:53.805Z,6.70
2023-05-22T15:45:30.746Z,9.21
2023-05-22T16:00:19.725Z,8.76
2023-05-22T16:15:11.622Z,8.33
2023-05-22T16:44:49.723Z,6.20
2023-05-22T18:14:04.319Z,5.46
2023-05-22T18:28:57.302Z,5.35
2023-05-22T18:43:48.180Z,6.10
2023-05-22T18:58:39.668Z,4.91
2023-05-22T19:13:31.804Z,4.95
2023-05-22T19:28:23.118Z,5.55
2023-05-22T19:43:14.903Z,5.59
2023-05-22T19:58:07.181Z,6.26
2023-05-22T20:12:58.703Z,6.45
2023-05-22T20:27:50.189Z,6.75
2023-05-22T20:42:44.789Z,6.59
2023-05-22T20:57:38.733Z,6.95
2023-05-22T21:12:31.365Z,7.28
2023-05-22T21:27:25.325Z,7.34
2023-05-22T21:42:16.335Z,7.07
2023-05-22T21:57:07.943Z,7.35
2023-05-22T22:12:00.531Z,8.32
2023-05-22T22:26:51.995Z,9.96
2023-05-22T22:41:45.164Z,10.48
2023-05-22T22:56:38.516Z,11.04
2023-05-22T23:11:35.545Z,11.91
2023-05-22T23:26:26.416Z,12.24
2023-05-22T23:41:19.411Z,12.54
